sensor_id;sensor_type;location;lat;lon;timestamp;pressure;altitude;pressure_sealevel;temperature;humidity
26112;BME280;13829;48.990;8.346;2024-02-21T00:01:49;101536.28;;;9.27;98.72
26112;BME280;13829;48.990;8.346;2024-02-21T00:04:16;101538.06;;;9.28;98.29
26112;BME280;13829;48.990;8.346;2024-02-21T00:06:43;101529.00;;;9.17;98.44
26112;BME280;13829;48.990;8.346;2024-02-21T00:09:11;101534.50;;;9.26;97.99
26112;BME280;13829;48.990;8.346;2024-02-21T00:11:37;101527.66;;;9.33;97.93
26112;BME280;13829;48.990;8.346;2024-02-21T00:14:04;101527.38;;;9.22;98.36
26112;BME280;13829;48.990;8.346;2024-02-21T00:16:31;101519.19;;;9.11;99.58
26112;BME280;13829;48.990;8.346;2024-02-21T00:19:00;101515.88;;;9.17;100.00
26112;BME280;13829;48.990;8.346;2024-02-21T00:21:27;101505.38;;;9.17;100.00
26112;BME280;13829;48.990;8.346;2024-02-21T00:23:54;101512.03;;;9.06;99.76
26112;BME280;13829;48.990;8.346;2024-02-21T00:26:21;101507.75;;;9.09;99.72
26112;BME280;13829;48.990;8.346;2024-02-21T00:28:48;101505.25;;;9.14;100.00
26112;BME280;13829;48.990;8.346;2024-02-21T00:31:15;101507.75;;;9.09;100.00
26112;BME280;13829;48.990;8.346;2024-02-21T00:33:42;101504.72;;;9.26;100.00
26112;BME280;13829;48.990;8.346;2024-02-21T00:36:10;101501.13;;;9.22;99.98
26112;BME280;13829;48.990;8.346;2024-02-21T00:38:37;101495.50;;;9.08;99.55
26112;BME280;13829;48.990;8.346;2024-02-21T00:41:04;101487.50;;;9.05;100.00
26112;BME280;13829;48.990;8.346;2024-02-21T00:43:31;101488.50;;;9.09;100.00
26112;BME280;13829;48.990;8.346;2024-02-21T00:45:58;101484.38;;;9.17;100.00
26112;BME280;13829;48.990;8.346;2024-02-21T00:48:25;101479.81;;;9.11;99.35
26112;BME280;13829;48.990;8.346;2024-02-21T00:50:52;101476.91;;;9.01;99.16
26112;BME280;13829;48.990;8.346;2024-02-21T00:53:20;101474.00;;;8.91;100.00
26112;BME280;13829;48.990;8.346;2024-02-21T00:55:47;101471.13;;;9.14;100.00
26112;BME280;13829;48.990;8.346;2024-02-21T00:58:14;101465.22;;;9.21;99.88
26112;BME280;13829;48.990;8.346;2024-02-21T01:00:41;101464.22;;;9.16;100.00
26112;BME280;13829;48.990;8.346;2024-02-21T01:03:08;101450.31;;;9.20;100.00
26112;BME280;13829;48.990;8.346;2024-02-21T01:05:35;101448.91;;;9.33;100.00
26112;BME280;13829;48.990;8.346;2024-02-21T01:08:03;101441.50;;;9.18;100.00
26112;BME280;13829;48.990;8.346;2024-02-21T01:10:31;101439.47;;;9.08;100.00
26112;BME280;13829;48.990;8.346;2024-02-21T01:12:58;101422.94;;;9.44;100.00
26112;BME280;13829;48.990;8.346;2024-02-21T01:15:25;101423.03;;;9.47;100.00
26112;BME280;13829;48.990;8.346;2024-02-21T01:17:52;101428.44;;;9.20;100.00
26112;BME280;13829;48.990;8.346;2024-02-21T01:20:20;101430.94;;;9.15;100.00
26112;BME280;13829;48.990;8.346;2024-02-21T01:22:47;101432.72;;;9.16;100.00
26112;BME280;13829;48.990;8.346;2024-02-21T01:25:14;101415.34;;;9.21;100.00
26112;BME280;13829;48.990;8.346;2024-02-21T01:27:43;101403.25;;;9.26;100.00
26112;BME280;13829;48.990;8.346;2024-02-21T01:30:11;101397.41;;;9.05;100.00
26112;BME280;13829;48.990;8.346;2024-02-21T01:32:38;101404.09;;;8.93;100.00
26112;BME280;13829;48.990;8.346;2024-02-21T01:35:05;101392.16;;;9.05;100.00
26112;BME280;13829;48.990;8.346;2024-02-21T01:37:32;101377.75;;;9.22;100.00
26112;BME280;13829;48.990;8.346;2024-02-21T01:39:59;101367.13;;;9.18;100.00
26112;BME280;13829;48.990;8.346;2024-02-21T01:42:28;101360.19;;;9.20;100.00
26112;BME280;13829;48.990;8.346;2024-02-21T01:44:56;101370.63;;;9.18;100.00
26112;BME280;13829;48.990;8.346;2024-02-21T01:47:23;101380.06;;;9.10;100.00
26112;BME280;13829;48.990;8.346;2024-02-21T01:49:50;101386.50;;;8.89;100.00
26112;BME280;13829;48.990;8.346;2024-02-21T01:52:18;101404.69;;;8.83;100.00
26112;BME280;13829;48.990;8.346;2024-02-21T01:54:46;101394.94;;;8.79;100.00
26112;BME280;13829;48.990;8.346;2024-02-21T01:57:14;101387.94;;;8.78;100.00
26112;BME280;13829;48.990;8.346;2024-02-21T01:59:42;101389.25;;;8.63;100.00
26112;BME280;13829;48.990;8.346;2024-02-21T02:02:10;101387.00;;;8.76;100.00
26112;BME280;13829;48.990;8.346;2024-02-21T02:04:38;101391.44;;;8.48;100.00
26112;BME280;13829;48.990;8.346;2024-02-21T02:07:07;101385.38;;;8.49;100.00
26112;BME280;13829;48.990;8.346;2024-02-21T02:09:34;101395.63;;;8.43;100.00
26112;BME280;13829;48.990;8.346;2024-02-21T02:12:05;101383.41;;;8.43;100.00
26112;BME280;13829;48.990;8.346;2024-02-21T02:14:32;101378.34;;;8.48;100.00
26112;BME280;13829;48.990;8.346;2024-02-21T02:16:59;101373.94;;;8.47;100.00
26112;BME280;13829;48.990;8.346;2024-02-21T02:19:27;101385.16;;;8.43;100.00
26112;BME280;13829;48.990;8.346;2024-02-21T02:22:01;101367.88;;;8.49;100.00
26112;BME280;13829;48.990;8.346;2024-02-21T02:24:33;101357.00;;;8.66;100.00
26112;BME280;13829;48.990;8.346;2024-02-21T02:27:00;101359.31;;;8.55;100.00
26112;BME280;13829;48.990;8.346;2024-02-21T02:29:27;101373.81;;;8.44;100.00
26112;BME280;13829;48.990;8.346;2024-02-21T02:31:54;101361.00;;;8.53;100.00
26112;BME280;13829;48.990;8.346;2024-02-21T02:34:21;101353.38;;;8.62;100.00
26112;BME280;13829;48.990;8.346;2024-02-21T02:36:48;101340.56;;;8.72;100.00
26112;BME280;13829;48.990;8.346;2024-02-21T02:39:15;101336.81;;;8.63;100.00
26112;BME280;13829;48.990;8.346;2024-02-21T02:41:43;101319.22;;;8.91;100.00
26112;BME280;13829;48.990;8.346;2024-02-21T02:44:10;101328.41;;;8.75;100.00
26112;BME280;13829;48.990;8.346;2024-02-21T02:46:40;101328.09;;;8.64;100.00
26112;BME280;13829;48.990;8.346;2024-02-21T02:49:07;101334.75;;;8.84;100.00
26112;BME280;13829;48.990;8.346;2024-02-21T02:51:34;101318.22;;;8.88;100.00
26112;BME280;13829;48.990;8.346;2024-02-21T02:54:02;101318.22;;;8.88;100.00
26112;BME280;13829;48.990;8.346;2024-02-21T02:56:29;101311.00;;;8.79;100.00
26112;BME280;13829;48.990;8.346;2024-02-21T02:58:57;101306.72;;;8.82;100.00
26112;BME280;13829;48.990;8.346;2024-02-21T03:01:24;101302.38;;;8.83;100.00
26112;BME280;13829;48.990;8.346;2024-02-21T03:03:51;101301.00;;;8.64;100.00
26112;BME280;13829;48.990;8.346;2024-02-21T03:06:18;101296.22;;;8.49;100.00
26112;BME280;13829;48.990;8.346;2024-02-21T03:08:45;101297.28;;;8.56;100.00
26112;BME280;13829;48.990;8.346;2024-02-21T03:11:12;101289.38;;;8.54;100.00
26112;BME280;13829;48.990;8.346;2024-02-21T03:13:39;101275.66;;;8.64;100.00
26112;BME280;13829;48.990;8.346;2024-02-21T03:16:07;101272.09;;;8.62;100.00
26112;BME280;13829;48.990;8.346;2024-02-21T03:18:34;101269.19;;;8.52;100.00
26112;BME280;13829;48.990;8.346;2024-02-21T03:21:01;101278.59;;;8.45;100.00
26112;BME280;13829;48.990;8.346;2024-02-21T03:23:28;101280.94;;;8.36;100.00
26112;BME280;13829;48.990;8.346;2024-02-21T03:25:55;101281.78;;;8.35;100.00
26112;BME280;13829;48.990;8.346;2024-02-21T03:28:22;101276.47;;;8.31;100.00
26112;BME280;13829;48.990;8.346;2024-02-21T03:30:49;101272.31;;;8.40;100.00
26112;BME280;13829;48.990;8.346;2024-02-21T03:33:17;101266.53;;;8.50;100.00
26112;BME280;13829;48.990;8.346;2024-02-21T03:35:45;101260.25;;;8.45;100.00
26112;BME280;13829;48.990;8.346;2024-02-21T03:38:12;101264.66;;;8.46;100.00
26112;BME280;13829;48.990;8.346;2024-02-21T03:40:39;101260.41;;;8.49;100.00
26112;BME280;13829;48.990;8.346;2024-02-21T03:43:06;101255.75;;;8.41;100.00
26112;BME280;13829;48.990;8.346;2024-02-21T03:45:33;101247.66;;;8.31;100.00
26112;BME280;13829;48.990;8.346;2024-02-21T03:48:00;101241.91;;;8.45;100.00
26112;BME280;13829;48.990;8.346;2024-02-21T03:50:29;101250.44;;;8.38;100.00
26112;BME280;13829;48.990;8.346;2024-02-21T03:52:56;101248.66;;;8.37;100.00
26112;BME280;13829;48.990;8.346;2024-02-21T03:55:23;101249.59;;;8.39;100.00
26112;BME280;13829;48.990;8.346;2024-02-21T03:57:50;101251.84;;;8.25;100.00
26112;BME280;13829;48.990;8.346;2024-02-21T04:00:18;101262.34;;;8.26;100.00
26112;BME280;13829;48.990;8.346;2024-02-21T04:02:45;101255.34;;;8.25;100.00
26112;BME280;13829;48.990;8.346;2024-02-21T04:05:15;101245.97;;;8.33;100.00
26112;BME280;13829;48.990;8.346;2024-02-21T04:07:44;101250.75;;;8.48;100.00
26112;BME280;13829;48.990;8.346;2024-02-21T04:10:10;101269.81;;;8.43;100.00
26112;BME280;13829;48.990;8.346;2024-02-21T04:12:41;101274.84;;;8.05;100.00
26112;BME280;13829;48.990;8.346;2024-02-21T04:15:08;101271.13;;;7.98;100.00
26112;BME280;13829;48.990;8.346;2024-02-21T04:17:36;101271.81;;;7.91;100.00
26112;BME280;13829;48.990;8.346;2024-02-21T04:20:04;101269.31;;;7.95;100.00
26112;BME280;13829;48.990;8.346;2024-02-21T04:22:33;101258.00;;;7.96;100.00
26112;BME280;13829;48.990;8.346;2024-02-21T04:25:01;101259.38;;;7.83;100.00
26112;BME280;13829;48.990;8.346;2024-02-21T04:27:28;101259.13;;;7.76;100.00
26112;BME280;13829;48.990;8.346;2024-02-21T04:29:55;101253.06;;;7.77;100.00
26112;BME280;13829;48.990;8.346;2024-02-21T04:32:22;101259.41;;;7.85;100.00
26112;BME280;13829;48.990;8.346;2024-02-21T04:34:49;101255.94;;;7.86;100.00
26112;BME280;13829;48.990;8.346;2024-02-21T04:37:16;101252.06;;;7.73;100.00
26112;BME280;13829;48.990;8.346;2024-02-21T04:39:43;101250.06;;;7.64;100.00
26112;BME280;13829;48.990;8.346;2024-02-21T04:42:11;101240.34;;;7.60;100.00
26112;BME280;13829;48.990;8.346;2024-02-21T04:44:38;101240.84;;;7.77;100.00
26112;BME280;13829;48.990;8.346;2024-02-21T04:47:05;101236.97;;;7.64;100.00
26112;BME280;13829;48.990;8.346;2024-02-21T04:49:33;101242.03;;;7.58;100.00
26112;BME280;13829;48.990;8.346;2024-02-21T04:52:00;101228.97;;;7.60;100.00
26112;BME280;13829;48.990;8.346;2024-02-21T04:54:27;101227.22;;;7.59;100.00
26112;BME280;13829;48.990;8.346;2024-02-21T04:56:54;101217.63;;;7.59;100.00
26112;BME280;13829;48.990;8.346;2024-02-21T04:59:22;101211.38;;;7.54;100.00
26112;BME280;13829;48.990;8.346;2024-02-21T05:01:49;101198.28;;;7.54;100.00
26112;BME280;13829;48.990;8.346;2024-02-21T05:04:16;101198.44;;;7.59;100.00
26112;BME280;13829;48.990;8.346;2024-02-21T05:06:43;101195.41;;;7.45;100.00
26112;BME280;13829;48.990;8.346;2024-02-21T05:09:10;101191.03;;;7.45;100.00
26112;BME280;13829;48.990;8.346;2024-02-21T05:11:37;101186.59;;;7.43;100.00
26112;BME280;13829;48.990;8.346;2024-02-21T05:14:04;101189.56;;;7.26;100.00
26112;BME280;13829;48.990;8.346;2024-02-21T05:16:33;101186.84;;;7.23;100.00
26112;BME280;13829;48.990;8.346;2024-02-21T05:19:00;101181.72;;;7.26;100.00
26112;BME280;13829;48.990;8.346;2024-02-21T05:21:28;101183.13;;;7.15;100.00
26112;BME280;13829;48.990;8.346;2024-02-21T05:23:55;101178.63;;;7.11;100.00
26112;BME280;13829;48.990;8.346;2024-02-21T05:26:23;101181.09;;;7.06;100.00
26112;BME280;13829;48.990;8.346;2024-02-21T05:28:49;101185.75;;;7.15;100.00
26112;BME280;13829;48.990;8.346;2024-02-21T05:31:17;101180.94;;;7.01;100.00
26112;BME280;13829;48.990;8.346;2024-02-21T05:33:46;101184.47;;;7.02;100.00
26112;BME280;13829;48.990;8.346;2024-02-21T05:36:13;101191.75;;;7.12;100.00
26112;BME280;13829;48.990;8.346;2024-02-21T05:38:40;101189.78;;;7.05;100.00
26112;BME280;13829;48.990;8.346;2024-02-21T05:41:07;101188.28;;;6.86;100.00
26112;BME280;13829;48.990;8.346;2024-02-21T05:43:34;101180.94;;;6.74;100.00
26112;BME280;13829;48.990;8.346;2024-02-21T05:46:01;101172.41;;;6.80;100.00
26112;BME280;13829;48.990;8.346;2024-02-21T05:48:28;101166.53;;;6.87;100.00
26112;BME280;13829;48.990;8.346;2024-02-21T05:50:56;101161.34;;;6.89;100.00
26112;BME280;13829;48.990;8.346;2024-02-21T05:53:23;101160.28;;;6.82;100.00
26112;BME280;13829;48.990;8.346;2024-02-21T05:55:50;101159.19;;;6.75;100.00
26112;BME280;13829;48.990;8.346;2024-02-21T05:58:18;101166.97;;;6.74;100.00
26112;BME280;13829;48.990;8.346;2024-02-21T06:00:45;101162.59;;;6.73;100.00
26112;BME280;13829;48.990;8.346;2024-02-21T06:03:12;101156.44;;;6.71;100.00
26112;BME280;13829;48.990;8.346;2024-02-21T06:05:39;101166.31;;;6.79;100.00
26112;BME280;13829;48.990;8.346;2024-02-21T06:08:08;101169.66;;;7.02;100.00
26112;BME280;13829;48.990;8.346;2024-02-21T06:10:34;101166.78;;;6.95;100.00
26112;BME280;13829;48.990;8.346;2024-02-21T06:13:01;101166.00;;;6.97;100.00
26112;BME280;13829;48.990;8.346;2024-02-21T06:15:28;101160.22;;;7.08;100.00
26112;BME280;13829;48.990;8.346;2024-02-21T06:17:55;101147.72;;;7.26;100.00
26112;BME280;13829;48.990;8.346;2024-02-21T06:20:22;101144.44;;;7.33;100.00
26112;BME280;13829;48.990;8.346;2024-02-21T06:22:49;101146.69;;;7.21;100.00
26112;BME280;13829;48.990;8.346;2024-02-21T06:25:18;101132.88;;;7.27;100.00
26112;BME280;13829;48.990;8.346;2024-02-21T06:27:45;101132.81;;;7.24;100.00
26112;BME280;13829;48.990;8.346;2024-02-21T06:30:13;101138.22;;;7.30;100.00
26112;BME280;13829;48.990;8.346;2024-02-21T06:32:40;101136.97;;;7.17;100.00
26112;BME280;13829;48.990;8.346;2024-02-21T06:35:07;101138.31;;;7.33;100.00
26112;BME280;13829;48.990;8.346;2024-02-21T06:37:34;101131.59;;;7.41;100.00
26112;BME280;13829;48.990;8.346;2024-02-21T06:40:00;101131.81;;;7.20;100.00
26112;BME280;13829;48.990;8.346;2024-02-21T06:42:30;101133.69;;;7.24;100.00
26112;BME280;13829;48.990;8.346;2024-02-21T06:44:57;101126.69;;;7.23;100.00
26112;BME280;13829;48.990;8.346;2024-02-21T06:47:24;101130.09;;;7.21;100.00
26112;BME280;13829;48.990;8.346;2024-02-21T06:49:51;101116.00;;;7.46;100.00
26112;BME280;13829;48.990;8.346;2024-02-21T06:52:18;101128.09;;;7.42;100.00
26112;BME280;13829;48.990;8.346;2024-02-21T06:54:46;101114.91;;;7.38;100.00
26112;BME280;13829;48.990;8.346;2024-02-21T06:57:13;101123.34;;;7.27;100.00
26112;BME280;13829;48.990;8.346;2024-02-21T06:59:42;101116.50;;;7.32;100.00
26112;BME280;13829;48.990;8.346;2024-02-21T07:02:09;101130.47;;;7.33;100.00
26112;BME280;13829;48.990;8.346;2024-02-21T07:04:36;101134.88;;;7.34;100.00
26112;BME280;13829;48.990;8.346;2024-02-21T07:07:03;101132.63;;;7.46;100.00
26112;BME280;13829;48.990;8.346;2024-02-21T07:09:30;101128.44;;;7.53;100.00
26112;BME280;13829;48.990;8.346;2024-02-21T07:11:58;101127.97;;;7.36;100.00
26112;BME280;13829;48.990;8.346;2024-02-21T07:14:25;101124.75;;;7.46;100.00
26112;BME280;13829;48.990;8.346;2024-02-21T07:16:54;101122.50;;;7.59;100.00
26112;BME280;13829;48.990;8.346;2024-02-21T07:19:22;101119.59;;;7.80;100.00
26112;BME280;13829;48.990;8.346;2024-02-21T07:21:49;101114.94;;;8.02;100.00
26112;BME280;13829;48.990;8.346;2024-02-21T07:24:16;101116.38;;;8.22;100.00
26112;BME280;13829;48.990;8.346;2024-02-21T07:26:43;101114.28;;;8.44;100.00
26112;BME280;13829;48.990;8.346;2024-02-21T07:29:11;101109.84;;;8.76;100.00
26112;BME280;13829;48.990;8.346;2024-02-21T07:31:41;101099.06;;;9.01;98.57
26112;BME280;13829;48.990;8.346;2024-02-21T07:34:10;101102.53;;;9.41;97.01
26112;BME280;13829;48.990;8.346;2024-02-21T07:36:37;101107.31;;;9.59;92.57
26112;BME280;13829;48.990;8.346;2024-02-21T07:39:04;101109.16;;;9.65;91.54
26112;BME280;13829;48.990;8.346;2024-02-21T07:41:31;101111.91;;;9.71;91.05
26112;BME280;13829;48.990;8.346;2024-02-21T07:44:00;101113.44;;;9.59;91.48
26112;BME280;13829;48.990;8.346;2024-02-21T07:46:27;101110.69;;;9.53;90.72
26112;BME280;13829;48.990;8.346;2024-02-21T07:48:54;101112.59;;;9.60;91.20
26112;BME280;13829;48.990;8.346;2024-02-21T07:51:22;101117.81;;;9.59;91.34
26112;BME280;13829;48.990;8.346;2024-02-21T07:53:49;101107.31;;;9.59;92.09
26112;BME280;13829;48.990;8.346;2024-02-21T07:56:16;101109.75;;;9.51;93.50
26112;BME280;13829;48.990;8.346;2024-02-21T07:58:43;101109.84;;;9.54;93.59
26112;BME280;13829;48.990;8.346;2024-02-21T08:01:10;101104.84;;;9.67;92.86
26112;BME280;13829;48.990;8.346;2024-02-21T08:03:37;101101.56;;;9.78;93.59
26112;BME280;13829;48.990;8.346;2024-02-21T08:06:05;101099.78;;;9.79;93.78
26112;BME280;13829;48.990;8.346;2024-02-21T08:08:33;101087.72;;;9.87;93.19
26112;BME280;13829;48.990;8.346;2024-02-21T08:11:00;101092.13;;;9.88;91.93
26112;BME280;13829;48.990;8.346;2024-02-21T08:13:27;101087.59;;;9.81;93.24
26112;BME280;13829;48.990;8.346;2024-02-21T08:15:54;101083.38;;;9.89;92.80
26112;BME280;13829;48.990;8.346;2024-02-21T08:18:21;101084.38;;;9.96;93.28
26112;BME280;13829;48.990;8.346;2024-02-21T08:20:48;101084.38;;;9.98;93.45
26112;BME280;13829;48.990;8.346;2024-02-21T08:23:16;101082.38;;;9.84;95.00
26112;BME280;13829;48.990;8.346;2024-02-21T08:25:44;101077.06;;;9.81;95.14
26112;BME280;13829;48.990;8.346;2024-02-21T08:28:13;101070.63;;;9.65;95.43
26112;BME280;13829;48.990;8.346;2024-02-21T08:30:40;101074.22;;;9.70;95.99
26112;BME280;13829;48.990;8.346;2024-02-21T08:33:10;101067.97;;;9.63;95.63
26112;BME280;13829;48.990;8.346;2024-02-21T08:35:36;101063.09;;;9.82;94.85
26112;BME280;13829;48.990;8.346;2024-02-21T08:38:03;101062.94;;;9.73;95.52
26112;BME280;13829;48.990;8.346;2024-02-21T08:40:30;101069.81;;;9.68;93.66
26112;BME280;13829;48.990;8.346;2024-02-21T08:43:02;101062.16;;;9.80;95.78
26112;BME280;13829;48.990;8.346;2024-02-21T08:45:29;101057.00;;;9.83;96.29
26112;BME280;13829;48.990;8.346;2024-02-21T08:47:56;101057.19;;;9.95;95.70
26112;BME280;13829;48.990;8.346;2024-02-21T08:50:23;101049.09;;;9.83;96.39
26112;BME280;13829;48.990;8.346;2024-02-21T08:52:50;101049.34;;;9.97;97.94
26112;BME280;13829;48.990;8.346;2024-02-21T08:55:17;101046.25;;;10.21;97.65
26112;BME280;13829;48.990;8.346;2024-02-21T08:57:44;101053.34;;;10.25;96.57
26112;BME280;13829;48.990;8.346;2024-02-21T09:00:14;101048.06;;;10.25;95.98
26112;BME280;13829;48.990;8.346;2024-02-21T09:02:42;101037.69;;;10.35;96.10
26112;BME280;13829;48.990;8.346;2024-02-21T09:05:09;101044.97;;;10.48;96.57
26112;BME280;13829;48.990;8.346;2024-02-21T09:07:36;101043.69;;;10.81;93.56
26112;BME280;13829;48.990;8.346;2024-02-21T09:10:04;101034.09;;;10.85;93.33
26112;BME280;13829;48.990;8.346;2024-02-21T09:12:31;101034.31;;;11.00;92.64
26112;BME280;13829;48.990;8.346;2024-02-21T09:14:58;101035.25;;;11.04;89.07
26112;BME280;13829;48.990;8.346;2024-02-21T09:17:26;101024.69;;;11.01;89.73
26112;BME280;13829;48.990;8.346;2024-02-21T09:19:54;101024.78;;;11.10;87.22
26112;BME280;13829;48.990;8.346;2024-02-21T09:22:24;101016.81;;;11.05;86.64
26112;BME280;13829;48.990;8.346;2024-02-21T09:24:51;101000.31;;;11.17;88.78
26112;BME280;13829;48.990;8.346;2024-02-21T09:27:18;100994.16;;;11.17;87.38
26112;BME280;13829;48.990;8.346;2024-02-21T09:29:45;101002.22;;;11.31;88.37
26112;BME280;13829;48.990;8.346;2024-02-21T09:32:12;101001.34;;;11.29;88.01
26112;BME280;13829;48.990;8.346;2024-02-21T09:34:40;100997.19;;;11.51;83.44
26112;BME280;13829;48.990;8.346;2024-02-21T09:37:08;100998.75;;;11.35;84.94
26112;BME280;13829;48.990;8.346;2024-02-21T09:39:35;101002.28;;;11.34;83.22
26112;BME280;13829;48.990;8.346;2024-02-21T09:42:06;101000.66;;;11.50;84.43
26112;BME280;13829;48.990;8.346;2024-02-21T09:44:37;100995.53;;;11.64;85.69
26112;BME280;13829;48.990;8.346;2024-02-21T09:47:08;100993.88;;;11.72;81.79
26112;BME280;13829;48.990;8.346;2024-02-21T09:49:37;100995.75;;;11.82;83.39
26112;BME280;13829;48.990;8.346;2024-02-21T09:52:08;100992.25;;;11.86;81.40
26112;BME280;13829;48.990;8.346;2024-02-21T09:54:40;100994.75;;;11.74;82.86
26112;BME280;13829;48.990;8.346;2024-02-21T09:57:10;100990.31;;;11.67;83.24
26112;BME280;13829;48.990;8.346;2024-02-21T09:59:38;100978.09;;;11.73;82.31
26112;BME280;13829;48.990;8.346;2024-02-21T10:02:05;100974.59;;;11.79;81.68
26112;BME280;13829;48.990;8.346;2024-02-21T10:04:32;100971.09;;;11.80;78.58
26112;BME280;13829;48.990;8.346;2024-02-21T10:06:59;100972.75;;;11.66;80.15
26112;BME280;13829;48.990;8.346;2024-02-21T10:09:28;100961.38;;;11.71;81.79
26112;BME280;13829;48.990;8.346;2024-02-21T10:12:07;100959.56;;;11.67;82.40
26112;BME280;13829;48.990;8.346;2024-02-21T10:14:34;100954.38;;;11.73;83.16
26112;BME280;13829;48.990;8.346;2024-02-21T10:17:01;100948.25;;;11.79;81.83
26112;BME280;13829;48.990;8.346;2024-02-21T10:19:28;100948.25;;;11.79;80.44
26112;BME280;13829;48.990;8.346;2024-02-21T10:22:03;100947.50;;;11.89;78.81
26112;BME280;13829;48.990;8.346;2024-02-21T10:24:32;100937.94;;;12.01;77.42
26112;BME280;13829;48.990;8.346;2024-02-21T10:27:02;100938.81;;;12.03;81.69
26112;BME280;13829;48.990;8.346;2024-02-21T10:29:29;100931.88;;;12.11;80.33
26112;BME280;13829;48.990;8.346;2024-02-21T10:32:05;100931.81;;;12.05;76.37
26112;BME280;13829;48.990;8.346;2024-02-21T10:34:33;100936.31;;;12.21;75.90
26112;BME280;13829;48.990;8.346;2024-02-21T10:37:01;100924.09;;;12.31;76.77
26112;BME280;13829;48.990;8.346;2024-02-21T10:39:29;100927.59;;;12.29;74.15
26112;BME280;13829;48.990;8.346;2024-02-21T10:42:01;100919.69;;;12.33;76.37
26112;BME280;13829;48.990;8.346;2024-02-21T10:44:31;100912.63;;;12.32;75.53
26112;BME280;13829;48.990;8.346;2024-02-21T10:46:58;100907.31;;;12.26;76.33
26112;BME280;13829;48.990;8.346;2024-02-21T10:49:26;100911.78;;;12.35;75.04
26112;BME280;13829;48.990;8.346;2024-02-21T10:52:00;100908.34;;;12.45;75.68
26112;BME280;13829;48.990;8.346;2024-02-21T10:54:44;100903.09;;;12.57;74.39
26112;BME280;13829;48.990;8.346;2024-02-21T10:57:13;100889.84;;;12.39;72.85
26112;BME280;13829;48.990;8.346;2024-02-21T10:59:42;100888.91;;;12.32;72.87
26112;BME280;13829;48.990;8.346;2024-02-21T11:02:10;100874.84;;;12.35;74.16
26112;BME280;13829;48.990;8.346;2024-02-21T11:04:38;100880.09;;;12.26;74.32
26112;BME280;13829;48.990;8.346;2024-02-21T11:07:06;100867.88;;;12.46;72.25
26112;BME280;13829;48.990;8.346;2024-02-21T11:09:34;100864.41;;;12.50;70.57
26112;BME280;13829;48.990;8.346;2024-02-21T11:12:04;100860.03;;;12.57;69.86
26112;BME280;13829;48.990;8.346;2024-02-21T11:14:32;100854.69;;;12.46;73.29
26112;BME280;13829;48.990;8.346;2024-02-21T11:17:02;100862.63;;;12.49;72.17
26112;BME280;13829;48.990;8.346;2024-02-21T11:19:30;100853.88;;;12.60;71.66
26112;BME280;13829;48.990;8.346;2024-02-21T11:21:57;100857.38;;;12.59;72.12
26112;BME280;13829;48.990;8.346;2024-02-21T11:24:28;100849.53;;;12.79;69.53
26112;BME280;13829;48.990;8.346;2024-02-21T11:26:56;100841.59;;;12.74;71.28
26112;BME280;13829;48.990;8.346;2024-02-21T11:29:24;100841.59;;;12.69;69.65
26112;BME280;13829;48.990;8.346;2024-02-21T11:31:53;100838.09;;;12.84;69.76
26112;BME280;13829;48.990;8.346;2024-02-21T11:34:20;100831.97;;;12.87;68.78
26112;BME280;13829;48.990;8.346;2024-02-21T11:36:48;100821.41;;;12.88;68.87
26112;BME280;13829;48.990;8.346;2024-02-21T11:39:20;100813.50;;;12.98;67.59
26112;BME280;13829;48.990;8.346;2024-02-21T11:42:02;100813.50;;;12.88;68.88
26112;BME280;13829;48.990;8.346;2024-02-21T11:44:30;100804.69;;;12.89;70.22
26112;BME280;13829;48.990;8.346;2024-02-21T11:46:58;100792.34;;;12.85;68.92
26112;BME280;13829;48.990;8.346;2024-02-21T11:49:25;100788.84;;;13.02;71.11
26112;BME280;13829;48.990;8.346;2024-02-21T11:51:58;100780.91;;;12.96;69.62
26112;BME280;13829;48.990;8.346;2024-02-21T11:54:26;100781.84;;;13.04;65.27
26112;BME280;13829;48.990;8.346;2024-02-21T11:56:53;100776.50;;;12.85;66.80
26112;BME280;13829;48.990;8.346;2024-02-21T11:59:20;100768.63;;;12.88;68.92
26112;BME280;13829;48.990;8.346;2024-02-21T12:01:48;100771.25;;;12.92;68.46
26112;BME280;13829;48.990;8.346;2024-02-21T12:04:19;100764.22;;;12.94;67.47
26112;BME280;13829;48.990;8.346;2024-02-21T12:06:47;100751.00;;;12.78;67.91
26112;BME280;13829;48.990;8.346;2024-02-21T12:09:14;100751.88;;;12.86;69.31
26112;BME280;13829;48.990;8.346;2024-02-21T12:11:43;100749.22;;;12.80;68.28
26112;BME280;13829;48.990;8.346;2024-02-21T12:14:10;100743.09;;;12.80;69.33
26112;BME280;13829;48.990;8.346;2024-02-21T12:16:37;100736.94;;;12.88;69.24
26112;BME280;13829;48.990;8.346;2024-02-21T12:19:04;100736.91;;;12.93;68.01
26112;BME280;13829;48.990;8.346;2024-02-21T12:21:33;100729.00;;;13.07;67.79
26112;BME280;13829;48.990;8.346;2024-02-21T12:24:12;100736.06;;;12.93;67.46
26112;BME280;13829;48.990;8.346;2024-02-21T12:26:39;100716.72;;;13.06;68.46
26112;BME280;13829;48.990;8.346;2024-02-21T12:29:07;100707.91;;;12.98;68.30
26112;BME280;13829;48.990;8.346;2024-02-21T12:31:35;100712.28;;;13.08;66.87
26112;BME280;13829;48.990;8.346;2024-02-21T12:34:02;100703.47;;;12.98;67.83
26112;BME280;13829;48.990;8.346;2024-02-21T12:36:29;100694.69;;;12.98;65.60
26112;BME280;13829;48.990;8.346;2024-02-21T12:38:58;100692.94;;;13.06;67.56
26112;BME280;13829;48.990;8.346;2024-02-21T12:41:26;100690.28;;;13.03;68.55
26112;BME280;13829;48.990;8.346;2024-02-21T12:43:53;100685.00;;;13.08;68.88
26112;BME280;13829;48.990;8.346;2024-02-21T12:46:20;100683.25;;;12.97;67.27
26112;BME280;13829;48.990;8.346;2024-02-21T12:48:47;100677.09;;;13.00;67.34
26112;BME280;13829;48.990;8.346;2024-02-21T12:51:14;100664.78;;;12.99;67.43
26112;BME280;13829;48.990;8.346;2024-02-21T12:53:46;100653.34;;;12.94;68.45
26112;BME280;13829;48.990;8.346;2024-02-21T12:56:16;100658.59;;;12.91;68.42